Pathein, Burma
Current Conditions -  °F | °C
As of 5:30 PM on Saturday 25 Oct 2014 (Local Time) from VYYY Reporting Station
Scattered Clouds Scattered Clouds  
Wind Chill: 84°   Ceiling: Unl
Heat Index: 92°   Visibility: 4mi
Dew Point: 75°   Wind: 2mph
Humidity: 74%   Direction: 80°E
Pressure: 29.83"   Gusts: NA
Location:  16.78°N, 94.73°E
Report Text: VYYY 251130Z 08002KT 7000 SCT020 FEW025CB 29/24 Q1010 CB SW
Loading
Personal Weather Stations






























Interactive Weather Map
Tropical Storm Tracking
New forecast layout! Learn more

10-Day Weather Forecast

Advertisements
Track Severe Weather on mobile